Broad Arrow, Australia
Current Conditions -  °F | °C
As of 12:05 AM on Monday 24 Nov 2014 (Local Time) from YPKG Reporting Station
Clear Clear  
Wind Chill: 59°   Ceiling: Unl
Heat Index: 59°   Visibility: 6mi
Dew Point: 45°   Wind: 17mph
Humidity: 59%   Direction: 150°SSE
Pressure: 30.09"   Gusts: 29mph
Location:  30.44°S, 121.31°E
Report Text: YPKG 231605Z AUTO 15015G25KT 9999 // NCD 15/07 Q1019
Loading
Personal Weather Stations






























Interactive Weather Map New forecast layout! Learn more

10-Day Weather Forecast

Advertisements
Track Severe Weather on mobile